Time;durP1;ratioP1;P1;durP2;ratioP2;P2;SDS_P1;SDS_P2;PMS_P1;PMS_P2;Temp;Humidity;BMP_temperature;BMP_pressure;BME280_temperature;BME280_humidity;BME280_pressure;Samples;Min_cycle;Max_cycle;Signal;HPM_P1;HPM_P2
2021/12/08 00:00:25;;;;;;;5.63;4.38;;;;;;;-1.09;100.00;91507.50;2090363;28;20017;-91
2021/12/08 00:01:27;;;;;;;7.32;4.78;;;;;;;-0.86;100.00;91514.88;2096671;28;20077;-91
2021/12/08 00:02:32;;;;;;;4.93;4.43;;;;;;;-0.89;100.00;91502.50;2088714;28;20032;-89
2021/12/08 00:03:38;;;;;;;4.50;3.85;;;;;;;-1.01;100.00;91502.94;2079583;28;20141;-92
2021/12/08 00:04:39;;;;;;;8.15;4.47;;;;;;;-0.99;100.00;91505.19;2085546;28;20032;-89
2021/12/08 00:05:43;;;;;;;8.02;3.63;;;;;;;-0.81;100.00;91511.09;2092385;28;20032;-92
2021/12/08 00:06:44;;;;;;;7.05;4.18;;;;;;;-0.92;100.00;91507.78;2094651;28;20016;-92
2021/12/08 00:07:46;;;;;;;3.80;3.45;;;;;;;-0.73;100.00;91494.19;2084002;28;20088;-92
2021/12/08 00:09:05;;;;;;;5.43;3.90;;;;;;;-0.67;100.00;91497.88;2091103;28;20073;-93
2021/12/08 00:13:08;;;;;;;4.35;3.22;;;;;;;-0.86;100.00;91503.63;2086704;28;20025;-89
2021/12/08 00:14:09;;;;;;;3.60;3.30;;;;;;;-0.95;100.00;91500.69;2087318;28;20020;-91
2021/12/08 00:15:10;;;;;;;5.05;3.38;;;;;;;-0.80;100.00;91494.97;2098429;28;20493;-89
2021/12/08 00:16:12;;;;;;;6.15;3.83;;;;;;;-0.71;100.00;91497.16;2097982;28;20484;-90
2021/12/08 00:17:13;;;;;;;5.00;3.55;;;;;;;-0.77;100.00;91494.22;2098325;28;20024;-90
2021/12/08 00:18:22;;;;;;;4.30;3.20;;;;;;;-0.81;100.00;91488.22;2098220;28;20028;-90
2021/12/08 00:19:24;;;;;;;9.65;3.40;;;;;;;-0.65;100.00;91487.03;2092691;28;20083;-92
2021/12/08 00:20:28;;;;;;;4.95;3.03;;;;;;;-0.73;100.00;91488.19;2090749;28;20029;-91
2021/12/08 00:21:29;;;;;;;8.77;3.60;;;;;;;-0.82;100.00;91494.63;2105295;28;20024;-88
2021/12/08 00:22:30;;;;;;;4.28;3.03;;;;;;;-0.67;100.00;91487.41;2090061;28;20017;-91
2021/12/08 00:23:32;;;;;;;5.97;3.08;;;;;;;-0.73;100.00;91480.34;2098871;28;20071;-91
2021/12/08 00:25:02;;;;;;;3.80;3.10;;;;;;;-0.72;100.00;91484.44;2107057;28;20020;-90
2021/12/08 00:26:06;;;;;;;8.20;3.03;;;;;;;-0.77;100.00;91485.59;2094439;28;20467;-90
2021/12/08 00:27:08;;;;;;;5.95;3.42;;;;;;;-0.70;100.00;91472.44;2090776;28;20080;-90
2021/12/08 00:28:09;;;;;;;3.45;3.15;;;;;;;-0.74;100.00;91473.59;2090423;28;20571;-90
2021/12/08 00:29:10;;;;;;;4.45;3.00;;;;;;;-0.81;100.00;91472.50;2082321;28;20017;-88
2021/12/08 00:30:12;;;;;;;3.40;3.10;;;;;;;-0.81;100.00;91482.25;2090296;28;20021;-90
2021/12/08 00:31:13;;;;;;;4.43;3.28;;;;;;;-0.83;100.00;91472.16;2105641;28;20023;-89
2021/12/08 00:32:15;;;;;;;7.70;4.03;;;;;;;-0.90;100.00;91474.06;2106871;28;20389;-91
2021/12/08 00:33:18;;;;;;;6.43;3.60;;;;;;;-0.85;100.00;91468.41;2090456;28;20116;-89
2021/12/08 00:34:19;;;;;;;5.78;3.10;;;;;;;-0.78;100.00;91471.72;2094684;28;20153;-90
2021/12/08 00:35:21;;;;;;;3.63;3.33;;;;;;;-0.74;100.00;91473.59;2106938;28;20028;-91
2021/12/08 00:36:28;;;;;;;4.97;3.60;;;;;;;-0.66;100.00;91469.78;2098487;28;20493;-92
2021/12/08 00:37:29;;;;;;;4.40;3.13;;;;;;;-0.75;100.00;91470.19;2093066;28;20028;-92
2021/12/08 00:38:32;;;;;;;6.10;3.58;;;;;;;-0.63;100.00;91475.00;2106903;28;20020;-89
2021/12/08 00:39:33;;;;;;;4.20;3.33;;;;;;;-0.67;100.00;91471.66;2101340;28;20515;-90
2021/12/08 00:40:34;;;;;;;5.55;3.75;;;;;;;-0.71;100.00;91470.94;2106941;28;20035;-90
2021/12/08 00:41:36;;;;;;;4.70;3.45;;;;;;;-0.75;100.00;91470.19;2098574;28;20683;-90
2021/12/08 00:42:37;;;;;;;4.47;3.35;;;;;;;-0.55;100.00;91463.31;2091994;28;20033;-91
2021/12/08 00:43:44;;;;;;;4.10;3.38;;;;;;;-0.60;100.00;91476.13;2090201;28;20037;-90
2021/12/08 00:44:48;;;;;;;5.68;3.90;;;;;;;-0.56;100.00;91472.34;2091842;28;20055;-90
2021/12/08 00:46:01;;;;;;;3.85;3.17;;;;;;;-0.46;100.00;91472.63;2098994;28;20024;-89
2021/12/08 00:47:07;;;;;;;4.70;3.33;;;;;;;-0.63;100.00;91463.75;2091729;28;20167;-90
2021/12/08 00:48:09;;;;;;;6.70;4.07;;;;;;;-0.70;100.00;91463.81;2099246;28;20040;-90
2021/12/08 00:49:16;;;;;;;4.07;3.67;;;;;;;-0.66;100.00;91461.91;2105819;28;20028;-90
2021/12/08 00:50:19;;;;;;;6.53;3.85;;;;;;;-0.68;100.00;91457.06;2098275;28;20021;-92
2021/12/08 00:51:23;;;;;;;3.88;3.20;;;;;;;-0.55;100.00;91467.84;2088093;28;20036;-91
2021/12/08 00:52:29;;;;;;;6.30;3.78;;;;;;;-0.56;100.00;91468.97;2094779;28;20047;-91
2021/12/08 00:53:30;;;;;;;5.63;3.90;;;;;;;-0.60;100.00;91463.75;2107436;28;20028;-92
2021/12/08 00:54:31;;;;;;;5.63;3.70;;;;;;;-0.59;100.00;91470.47;2099389;28;20115;-89
2021/12/08 00:55:34;;;;;;;5.50;3.80;;;;;;;-0.51;100.00;91463.31;2098624;28;20028;-88
2021/12/08 00:56:35;;;;;;;7.32;3.80;;;;;;;-0.43;100.00;91475.25;2091840;28;20505;-90
2021/12/08 00:57:36;;;;;;;5.20;3.97;;;;;;;-0.58;100.00;91471.22;2081839;28;20524;-89
2021/12/08 00:58:38;;;;;;;5.25;4.03;;;;;;;-0.35;100.00;91475.91;2081943;28;20108;-90
2021/12/08 00:59:39;;;;;;;7.72;3.80;;;;;;;-0.51;100.00;91471.91;2084116;28;20028;-90
2021/12/08 01:00:43;;;;;;;7.65;4.35;;;;;;;-0.45;100.00;91466.25;2089955;28;20032;-90
2021/12/08 01:01:44;;;;;;;4.32;3.92;;;;;;;-0.47;100.00;91469.28;2099211;28;20120;-91
2021/12/08 01:02:46;;;;;;;5.25;4.03;;;;;;;-0.40;100.00;91468.47;2106400;28;20521;-89
2021/12/08 01:03:48;;;;;;;8.07;4.05;;;;;;;-0.34;100.00;91470.31;2098059;28;20036;-90
2021/12/08 01:04:49;;;;;;;6.75;3.80;;;;;;;-0.33;100.00;91465.78;2106804;28;20020;-89
2021/12/08 01:05:54;;;;;;;5.05;4.00;;;;;;;-0.36;100.00;91467.31;2094318;28;20572;-89
2021/12/08 01:07:08;;;;;;;5.55;4.53;;;;;;;-0.27;100.00;91470.22;2082865;28;20033;-87
2021/12/08 01:08:13;;;;;;;7.05;4.15;;;;;;;-0.33;100.00;91471.03;2091709;28;20112;-89
2021/12/08 01:09:16;;;;;;;7.63;4.88;;;;;;;-0.42;100.00;91471.47;2082538;28;20107;-90
2021/12/08 01:10:22;;;;;;;4.97;4.55;;;;;;;-0.50;100.00;91467.41;2090447;28;20055;-90
2021/12/08 01:11:24;;;;;;;7.47;4.40;;;;;;;-0.57;100.00;91465.59;2098953;28;20107;-90
2021/12/08 01:12:25;;;;;;;4.88;4.35;;;;;;;-0.46;100.00;91470.03;2089844;28;20417;-92
2021/12/08 01:13:27;;;;;;;6.15;4.10;;;;;;;-0.43;100.00;91469.25;2098928;28;20024;-90
2021/12/08 01:14:30;;;;;;;5.78;4.90;;;;;;;-0.43;100.00;91466.63;2089960;28;20118;-89
2021/12/08 01:15:34;;;;;;;6.55;4.40;;;;;;;-0.49;100.00;91468.91;2090558;28;20032;-92
2021/12/08 01:16:36;;;;;;;6.28;4.65;;;;;;;-0.45;100.00;91467.00;2095767;28;20031;-90
2021/12/08 01:17:43;;;;;;;5.43;4.63;;;;;;;-0.58;100.00;91466.72;2089846;28;20456;-89
2021/12/08 01:18:44;;;;;;;7.22;5.10;;;;;;;-0.31;100.00;91469.53;2090651;28;20032;-90
2021/12/08 01:19:47;;;;;;;8.02;4.80;;;;;;;-0.25;100.00;91467.22;2098026;28;20016;-90
2021/12/08 01:20:50;;;;;;;6.50;4.55;;;;;;;-0.42;100.00;91470.75;2106726;28;20030;-90
2021/12/08 01:21:53;;;;;;;4.80;4.25;;;;;;;-0.41;100.00;91472.22;2098476;28;20047;-91
2021/12/08 01:22:58;;;;;;;5.38;4.80;;;;;;;-0.21;100.00;91467.94;2090355;28;20029;-90
2021/12/08 01:24:01;;;;;;;6.35;4.88;;;;;;;-0.25;100.00;91467.22;2090854;28;20025;-87
2021/12/08 01:25:05;;;;;;;5.75;4.68;;;;;;;-0.24;100.00;91465.34;2098542;28;20058;-90
2021/12/08 01:26:07;;;;;;;5.70;4.63;;;;;;;-0.25;100.00;91461.97;2098828;28;20564;-91
2021/12/08 01:27:09;;;;;;;5.30;4.53;;;;;;;-0.27;100.00;91466.84;2106317;28;20520;-90
2021/12/08 01:28:20;;;;;;;6.57;5.07;;;;;;;-0.31;100.00;91464.28;2098087;28;20469;-90
2021/12/08 01:29:21;;;;;;;6.38;4.60;;;;;;;-0.26;100.00;91471.72;2100627;28;20164;-89
2021/12/08 01:30:28;;;;;;;5.78;4.90;;;;;;;-0.28;100.00;91458.22;2114797;28;20022;-88
2021/12/08 01:31:30;;;;;;;4.95;4.30;;;;;;;-0.24;100.00;91463.47;2098772;28;20678;-90
2021/12/08 01:32:31;;;;;;;5.78;5.07;;;;;;;-0.26;100.00;91471.00;2106047;28;20091;-89
2021/12/08 01:33:35;;;;;;;5.63;4.40;;;;;;;-0.38;100.00;91474.09;2106384;28;20127;-88
2021/12/08 01:34:36;;;;;;;6.28;4.88;;;;;;;-0.57;100.00;91465.59;2106655;28;20020;-90
2021/12/08 01:35:37;;;;;;;8.00;5.85;;;;;;;-0.55;100.00;91457.34;2114605;28;20023;-90
2021/12/08 01:36:39;;;;;;;7.13;5.28;;;;;;;-0.56;100.00;91468.97;2106187;28;20491;-90
2021/12/08 01:37:41;;;;;;;6.60;5.47;;;;;;;-0.45;100.00;91466.25;2097692;28;20094;-90
2021/12/08 01:38:42;;;;;;;5.40;4.80;;;;;;;-0.37;100.00;91467.69;2089939;28;20033;-87
2021/12/08 01:39:43;;;;;;;6.57;5.40;;;;;;;-0.48;100.00;91464.41;2097715;28;20392;-90
2021/12/08 01:40:44;;;;;;;5.65;5.15;;;;;;;-0.47;100.00;91471.91;2089532;28;20032;-89
2021/12/08 01:41:47;;;;;;;7.82;5.22;;;;;;;-0.34;100.00;91464.31;2089810;28;20096;-89
2021/12/08 01:42:52;;;;;;;6.38;5.43;;;;;;;-0.30;100.00;91460.53;2090041;28;20079;-90
2021/12/08 01:46:39;;;;;;;5.78;4.95;;;;;;;-0.49;100.00;91463.66;2106184;28;20539;-91
2021/12/08 01:47:40;;;;;;;6.63;5.50;;;;;;;-0.37;100.00;91470.31;2097469;28;20051;-90
2021/12/08 01:48:42;;;;;;;5.93;5.28;;;;;;;-0.37;100.00;91471.06;2095882;28;20060;-90
2021/12/08 01:49:43;;;;;;;7.22;5.28;;;;;;;-0.46;100.00;91470.75;2092442;28;20090;-88
2021/12/08 01:50:50;;;;;;;7.88;5.90;;;;;;;-0.46;100.00;91478.63;2104880;28;20050;-88
2021/12/08 01:51:51;;;;;;;5.72;5.20;;;;;;;-0.45;100.00;91477.50;2097241;28;20028;-90
2021/12/08 01:52:52;;;;;;;6.32;5.60;;;;;;;-0.59;100.00;91478.34;2097634;28;20381;-89
2021/12/08 01:53:56;;;;;;;6.47;5.38;;;;;;;-0.39;100.00;91477.84;2093762;28;20474;-89
2021/12/08 01:54:57;;;;;;;5.78;4.88;;;;;;;-0.41;100.00;91470.34;2090329;28;20088;-91
2021/12/08 01:55:58;;;;;;;8.57;5.15;;;;;;;-0.31;100.00;91479.25;2097975;28;20055;-90
2021/12/08 01:57:00;;;;;;;5.88;5.28;;;;;;;-0.34;100.00;91483.41;2105962;28;20048;-90
2021/12/08 01:58:01;;;;;;;6.60;5.53;;;;;;;-0.37;100.00;91483.44;2097183;28;20504;-89
2021/12/08 01:59:05;;;;;;;6.28;5.65;;;;;;;-0.38;100.00;91485.31;2097583;28;20047;-88
2021/12/08 02:00:14;;;;;;;6.53;5.57;;;;;;;-0.34;100.00;91482.69;2097569;28;20107;-90
2021/12/08 02:01:18;;;;;;;6.90;5.43;;;;;;;-0.30;100.00;91478.88;2091628;28;20086;-90
2021/12/08 02:02:19;;;;;;;6.90;5.43;;;;;;;-0.38;100.00;91476.72;2090107;28;20025;-91
2021/12/08 02:03:23;;;;;;;5.95;5.35;;;;;;;-0.28;100.00;91478.50;2089599;28;20108;-92
2021/12/08 02:04:27;;;;;;;6.28;5.63;;;;;;;-0.39;100.00;91478.59;2098411;28;20017;-90
2021/12/08 02:05:28;;;;;;;7.57;6.50;;;;;;;-0.36;100.00;91480.41;2106665;28;20108;-90
2021/12/08 02:06:29;;;;;;;6.88;6.10;;;;;;;-0.39;100.00;91477.84;2106117;28;20023;-89
2021/12/08 02:07:30;;;;;;;7.18;6.03;;;;;;;-0.22;100.00;91476.19;2106151;28;20532;-89
2021/12/08 02:08:33;;;;;;;6.65;5.63;;;;;;;-0.38;100.00;91476.72;2106061;28;20545;-88
2021/12/08 02:09:39;;;;;;;8.70;6.47;;;;;;;-0.27;100.00;91472.84;2104653;28;20097;-89
2021/12/08 02:10:41;;;;;;;6.78;5.85;;;;;;;-0.39;100.00;91473.34;2090163;28;20028;-90
2021/12/08 02:11:47;;;;;;;8.30;6.40;;;;;;;-0.15;100.00;91473.50;2104779;28;20098;-91
2021/12/08 02:12:48;;;;;;;6.30;5.70;;;;;;;-0.37;100.00;91475.56;2106714;28;20035;-90
2021/12/08 02:13:52;;;;;;;6.78;6.10;;;;;;;-0.33;100.00;91469.16;2097665;28;20100;-90
2021/12/08 02:14:53;;;;;;;6.45;5.65;;;;;;;-0.33;100.00;91468.41;2090621;28;20031;-91
2021/12/08 02:15:54;;;;;;;6.20;5.60;;;;;;;-0.24;100.00;91460.09;2106163;28;20428;-89
2021/12/08 02:16:56;;;;;;;6.88;6.28;;;;;;;-0.40;100.00;91468.47;2105578;28;20089;-88
2021/12/08 02:17:57;;;;;;;9.63;6.60;;;;;;;-0.45;100.00;91466.25;2097765;28;20059;-90
2021/12/08 02:19:00;;;;;;;7.00;5.78;;;;;;;-0.42;100.00;91468.13;2106466;28;20500;-90
2021/12/08 02:20:05;;;;;;;6.85;6.00;;;;;;;-0.45;100.00;91468.88;2114877;28;20015;-89
2021/12/08 02:21:34;;;;;;;9.10;6.22;;;;;;;-0.40;100.00;91466.56;2106066;28;20020;-90
2021/12/08 02:22:35;;;;;;;5.63;4.93;;;;;;;-0.22;100.00;91461.22;2096170;28;20476;-89
2021/12/08 02:23:36;;;;;;;6.35;5.75;;;;;;;-0.36;100.00;91461.31;2097865;28;20413;-89
2021/12/08 02:24:37;;;;;;;6.63;6.03;;;;;;;-0.36;100.00;91467.31;2097636;28;20052;-91
2021/12/08 02:25:38;;;;;;;6.78;6.00;;;;;;;-0.39;100.00;91456.84;2106069;28;20020;-90
2021/12/08 02:26:41;;;;;;;6.60;5.72;;;;;;;-0.31;100.00;91464.28;2106011;28;20077;-91
2021/12/08 02:27:42;;;;;;;9.35;6.55;;;;;;;-0.37;100.00;91457.19;2089481;28;20060;-88
2021/12/08 02:28:44;;;;;;;7.47;6.78;;;;;;;-0.48;100.00;91459.91;2089522;28;20025;-89
2021/12/08 02:29:52;;;;;;;6.72;5.97;;;;;;;-0.38;100.00;91464.31;2097548;28;20021;-89
2021/12/08 02:30:56;;;;;;;6.97;6.15;;;;;;;-0.44;100.00;91462.50;2090274;28;20205;-89
2021/12/08 02:32:09;;;;;;;6.07;5.25;;;;;;;-0.49;100.00;91461.03;2089805;28;20059;-89
2021/12/08 02:47:31;;;;;;;8.05;6.57;;;;;;;-0.42;100.00;91447.13;2109389;28;20458;-89
2021/12/08 02:48:38;;;;;;;8.23;7.05;;;;;;;-0.36;100.00;91459.44;2108215;28;20747;-88
2021/12/08 02:49:46;;;;;;;6.78;5.95;;;;;;;-0.31;100.00;91461.66;2106711;28;20027;-90
2021/12/08 02:50:51;;;;;;;7.30;6.60;;;;;;;-0.36;100.00;91456.06;2097833;28;20051;-87
2021/12/08 02:51:55;;;;;;;7.13;6.40;;;;;;;-0.28;100.00;91453.00;2098797;28;20032;-91
2021/12/08 02:53:04;;;;;;;9.95;7.35;;;;;;;-0.37;100.00;91447.44;2097415;28;20476;-90
2021/12/08 02:54:08;;;;;;;8.57;6.85;;;;;;;-0.28;100.00;91460.13;2098497;28;20477;-90
2021/12/08 02:55:12;;;;;;;8.35;6.45;;;;;;;-0.40;100.00;91452.72;2090480;28;20021;-88
2021/12/08 02:56:18;;;;;;;7.95;6.93;;;;;;;-0.30;100.00;91457.91;2089692;28;20058;-88
2021/12/08 02:57:26;;;;;;;7.63;6.45;;;;;;;-0.38;100.00;91456.44;2089889;28;20017;-89
2021/12/08 02:58:27;;;;;;;7.85;7.13;;;;;;;-0.39;100.00;91451.59;2082924;28;20017;-89
2021/12/08 02:59:28;;;;;;;8.63;6.78;;;;;;;-0.45;100.00;91453.88;2093941;28;20535;-87
2021/12/08 03:00:35;;;;;;;7.45;6.72;;;;;;;-0.34;100.00;91453.81;2097702;28;20029;-90
2021/12/08 03:01:38;;;;;;;7.05;6.35;;;;;;;-0.23;100.00;91451.81;2098411;28;20024;-90
2021/12/08 03:02:45;;;;;;;7.28;6.57;;;;;;;-0.24;100.00;91452.97;2098067;28;20024;-87
2021/12/08 03:03:46;;;;;;;8.63;6.70;;;;;;;-0.32;100.00;91454.16;2098267;28;20024;-90
2021/12/08 03:04:47;;;;;;;6.85;6.20;;;;;;;-0.47;100.00;91455.41;2097591;28;20021;-88
2021/12/08 03:05:52;;;;;;;7.35;6.65;;;;;;;-0.35;100.00;91455.69;2106038;28;20024;-90
2021/12/08 03:06:55;;;;;;;6.85;6.20;;;;;;;-0.30;100.00;91452.63;2097921;28;20093;-89
2021/12/08 03:07:58;;;;;;;7.05;6.35;;;;;;;-0.28;100.00;91457.50;2098076;28;20107;-91
2021/12/08 03:09:02;;;;;;;7.15;5.80;;;;;;;-0.35;100.00;91457.53;2106127;28;20032;-89
2021/12/08 03:10:08;;;;;;;6.47;5.80;;;;;;;-0.05;100.00;91444.53;2105586;28;20481;-91
2021/12/08 03:11:09;;;;;;;6.38;5.78;;;;;;;-0.22;100.00;91460.44;2098754;28;20109;-89
2021/12/08 03:12:11;;;;;;;5.93;5.40;;;;;;;0.05;100.00;91458.72;2105866;28;20044;-90
2021/12/08 03:13:14;;;;;;;6.30;5.70;;;;;;;-0.25;100.00;91459.34;2099218;28;20592;-88
2021/12/08 03:14:20;;;;;;;6.95;6.07;;;;;;;-0.27;100.00;91459.72;2099277;28;20052;-89
2021/12/08 03:15:21;;;;;;;6.38;5.78;;;;;;;-0.26;100.00;91448.09;2091388;28;20070;-88
2021/12/08 03:16:22;;;;;;;6.70;5.95;;;;;;;-0.32;100.00;91456.78;2082386;28;20713;-89
2021/12/08 03:17:23;;;;;;;6.53;5.93;;;;;;;-0.37;100.00;91455.31;2082243;28;20071;-89
2021/12/08 03:18:32;;;;;;;6.68;5.65;;;;;;;-0.31;100.00;91459.03;2090881;28;20025;-89
2021/12/08 03:19:34;;;;;;;5.97;5.18;;;;;;;-0.41;100.00;91465.09;2100126;28;20024;-88
2021/12/08 03:20:59;;;;;;;6.15;5.60;;;;;;;-0.35;100.00;91460.16;2090804;28;20115;-88
2021/12/08 03:22:02;;;;;;;7.32;5.32;;;;;;;-0.38;100.00;91460.97;2096976;28;20030;-88
2021/12/08 03:23:05;;;;;;;5.90;5.30;;;;;;;-0.42;100.00;91460.97;2091103;28;20108;-89
2021/12/08 03:24:17;;;;;;;6.03;5.53;;;;;;;-0.47;100.00;91460.66;2091207;28;20057;-89
2021/12/08 03:25:20;;;;;;;6.35;5.43;;;;;;;-0.40;100.00;91457.97;2111498;28;20139;-87
2021/12/08 03:26:30;;;;;;;5.65;4.95;;;;;;;-0.45;100.00;91466.25;2099163;28;20025;-89
2021/12/08 03:27:39;;;;;;;5.95;5.35;;;;;;;-0.33;100.00;91461.28;2091690;28;20032;-88
2021/12/08 03:28:55;;;;;;;5.50;5.00;;;;;;;-0.37;100.00;91462.44;2101108;28;20032;-87
2021/12/08 03:30:13;;;;;;;5.82;5.32;;;;;;;-0.32;100.00;91459.41;2115582;28;20496;-89
2021/12/08 03:31:28;;;;;;;6.78;5.90;;;;;;;-0.28;100.00;91462.75;2101351;28;20078;-87
2021/12/08 03:32:36;;;;;;;6.05;5.45;;;;;;;-0.32;100.00;91462.03;2105514;27;20024;-89
2021/12/08 03:33:42;;;;;;;5.53;5.03;;;;;;;-0.32;100.00;91464.66;2103026;28;20424;-89
2021/12/08 03:34:54;;;;;;;5.97;5.38;;;;;;;-0.30;100.00;91463.16;2089335;28;20021;-89
2021/12/08 03:35:55;;;;;;;6.10;5.47;;;;;;;-0.28;100.00;91458.22;2089160;28;20501;-88
2021/12/08 03:36:56;;;;;;;5.68;5.10;;;;;;;-0.24;100.00;91460.09;2090402;28;20052;-89
2021/12/08 03:38:07;;;;;;;5.88;5.32;;;;;;;-0.29;100.00;91467.25;2090455;28;20033;-89
2021/12/08 03:39:11;;;;;;;;;;;;;;;-0.22;100.00;91468.31;2095525;28;20524;-88
2021/12/08 03:40:20;;;;;;;5.60;5.10;;;;;;;-0.33;100.00;91469.16;2113140;28;19962;-89
2021/12/08 03:41:23;;;;;;;5.72;5.22;;;;;;;-0.35;100.00;91470.66;2116897;27;20027;-88
2021/12/08 03:42:27;;;;;;;5.68;5.15;;;;;;;-0.18;100.00;91459.28;2106637;28;20035;-88
2021/12/08 03:43:31;;;;;;;6.10;5.50;;;;;;;-0.18;100.00;91464.53;2091333;28;20035;-89
2021/12/08 03:44:32;;;;;;;6.20;5.55;;;;;;;-0.19;100.00;91473.53;2090854;28;20108;-89
2021/12/08 03:45:44;;;;;;;5.53;5.05;;;;;;;-0.21;100.00;91460.06;2090515;28;20025;-88
2021/12/08 03:46:46;;;;;;;6.95;5.38;;;;;;;-0.29;100.00;91456.75;2091790;28;20175;-87
2021/12/08 03:47:49;;;;;;;5.97;5.38;;;;;;;-0.16;100.00;91462.28;2098805;28;20025;-90
2021/12/08 03:48:51;;;;;;;6.20;5.60;;;;;;;-0.08;100.00;91457.72;2106960;28;20020;-89
2021/12/08 03:49:53;;;;;;;5.97;5.40;;;;;;;-0.15;100.00;91457.75;2098674;28;20072;-88
2021/12/08 03:50:55;;;;;;;5.68;5.18;;;;;;;-0.20;100.00;91451.06;2100669;28;20016;-90
2021/12/08 03:52:00;;;;;;;6.10;5.50;;;;;;;-0.18;100.00;91453.28;2102946;28;20020;-88
2021/12/08 03:53:01;;;;;;;5.05;4.65;;;;;;;-0.25;100.00;91451.47;2098766;28;20032;-89
2021/12/08 03:54:03;;;;;;;6.10;5.50;;;;;;;-0.34;100.00;91451.91;2083927;28;20056;-90
2021/12/08 03:55:07;;;;;;;6.07;5.55;;;;;;;-0.19;100.00;91442.03;2101773;28;20441;-89
2021/12/08 03:56:08;;;;;;;5.43;4.93;;;;;;;-0.12;100.00;91449.13;2102035;28;20456;-88
2021/12/08 03:57:10;;;;;;;5.20;4.70;;;;;;;-0.19;100.00;91447.28;2097302;28;20081;-90
2021/12/08 03:58:14;;;;;;;6.25;5.65;;;;;;;-0.20;100.00;91452.94;2093498;28;20082;-88
2021/12/08 03:59:15;;;;;;;6.57;5.22;;;;;;;0.09;100.00;91450.78;2098118;28;20036;-87
2021/12/08 04:00:21;;;;;;;5.75;5.20;;;;;;;-0.04;100.00;91455.78;2105669;28;20020;-89
2021/12/08 04:01:26;;;;;;;5.57;5.07;;;;;;;0.01;100.00;91459.88;2091003;28;20028;-88
2021/12/08 04:02:28;;;;;;;5.82;5.22;;;;;;;-0.08;100.00;91458.44;2099141;28;20024;-88
2021/12/08 04:03:31;;;;;;;6.53;5.93;;;;;;;0.07;100.00;91463.56;2098445;28;20362;-87
2021/12/08 04:04:49;;;;;;;6.78;6.07;;;;;;;-0.05;100.00;91462.16;2098982;28;20082;-89
2021/12/08 04:06:00;;;;;;;5.95;5.35;;;;;;;0.07;100.00;91455.69;2092578;28;20385;-89
2021/12/08 04:07:03;;;;;;;6.20;5.30;;;;;;;-0.08;100.00;91442.69;2100971;28;20078;-89
2021/12/08 04:08:14;;;;;;;5.85;5.22;;;;;;;-0.06;100.00;91453.53;2112238;28;20035;-90
2021/12/08 04:09:32;;;;;;;5.75;5.25;;;;;;;-0.01;100.00;91455.75;2106737;28;20133;-88
2021/12/08 04:10:38;;;;;;;5.53;5.03;;;;;;;-0.15;100.00;91458.50;2092367;28;20028;-89
2021/12/08 04:11:39;;;;;;;5.70;5.20;;;;;;;-0.14;100.00;91449.50;2083725;28;20021;-88
2021/12/08 04:12:40;;;;;;;6.20;5.63;;;;;;;-0.21;100.00;91454.81;2090183;28;20028;-88
2021/12/08 04:13:51;;;;;;;5.63;5.18;;;;;;;-0.14;100.00;91446.88;2088220;28;20025;-87
2021/12/08 04:14:59;;;;;;;5.72;5.22;;;;;;;-0.19;100.00;91447.28;2089121;28;20021;-86
2021/12/08 04:16:00;;;;;;;5.50;5.00;;;;;;;-0.17;100.00;91450.28;2088345;28;20064;-90
2021/12/08 04:17:27;;;;;;;6.10;5.50;;;;;;;-0.14;100.00;91451.38;2098324;28;20051;-87
2021/12/08 04:18:29;;;;;;;5.43;4.93;;;;;;;-0.22;100.00;91455.19;2105892;28;20023;-88
2021/12/08 04:19:35;;;;;;;6.07;5.45;;;;;;;-0.23;100.00;91453.69;2098838;28;20116;-87
2021/12/08 04:20:54;;;;;;;6.00;5.50;;;;;;;-0.28;100.00;91455.63;2106644;28;20031;-90
2021/12/08 04:22:04;;;;;;;5.53;5.03;;;;;;;-0.23;100.00;91453.69;2091783;28;20545;-87
2021/12/08 04:23:14;;;;;;;5.68;5.18;;;;;;;-0.13;100.00;91456.25;2090991;28;20103;-88
2021/12/08 04:24:23;;;;;;;5.10;4.70;;;;;;;-0.11;100.00;91453.97;2092696;28;20025;-88
2021/12/08 04:25:33;;;;;;;5.50;5.00;;;;;;;-0.10;100.00;91452.09;2102287;28;20039;-88
2021/12/08 04:26:57;;;;;;;6.18;5.60;;;;;;;-0.11;100.00;91464.47;2092460;28;20106;-89
2021/12/08 04:28:02;;;;;;;5.45;4.95;;;;;;;0.03;100.00;91457.59;2096283;28;20020;-88
2021/12/08 04:29:08;;;;;;;6.07;5.25;;;;;;;0.02;100.00;91459.47;2090627;28;20082;-90
2021/12/08 04:30:20;;;;;;;5.05;4.65;;;;;;;-0.10;100.00;91452.81;2099125;28;20025;-89
2021/12/08 04:31:29;;;;;;;5.40;4.95;;;;;;;-0.03;100.00;91455.41;2106706;28;20107;-90
2021/12/08 04:32:32;;;;;;;5.68;5.20;;;;;;;-0.11;100.00;91455.84;2099241;28;20174;-90
2021/12/08 04:33:35;;;;;;;6.13;5.53;;;;;;;-0.20;100.00;91458.94;2098702;28;20111;-89
2021/12/08 04:34:39;;;;;;;5.68;5.18;;;;;;;-0.12;100.00;91455.13;2090384;28;20378;-90
2021/12/08 04:35:46;;;;;;;6.22;5.65;;;;;;;-0.12;100.00;91452.47;2082786;28;20029;-87
2021/12/08 04:36:50;;;;;;;6.22;5.47;;;;;;;-0.15;100.00;91452.50;2091712;28;20036;-90
2021/12/08 04:38:01;;;;;;;5.40;4.97;;;;;;;-0.15;100.00;91450.63;2090394;28;20024;-90
2021/12/08 04:39:09;;;;;;;5.32;4.90;;;;;;;-0.14;100.00;91456.63;2100987;28;20029;-89
2021/12/08 04:41:36;;;;;;;5.43;4.93;;;;;;;-0.11;100.00;91456.59;2100322;28;20509;-89
2021/12/08 04:42:59;;;;;;;5.75;5.22;;;;;;;-0.24;100.00;91452.97;2105259;28;20438;-89
2021/12/08 04:44:17;;;;;;;5.38;4.88;;;;;;;-0.21;100.00;91448.81;2101077;28;20097;-89
2021/12/08 04:45:30;;;;;;;5.53;5.03;;;;;;;-0.19;100.00;91455.16;2096350;28;20413;-87
2021/12/08 04:46:59;;;;;;;5.50;5.00;;;;;;;-0.24;100.00;91439.84;2104981;28;20408;-87
2021/12/08 04:52:06;;;;;;;6.22;5.63;;;;;;;-0.25;100.00;91451.47;2099953;28;20422;-89
2021/12/08 04:53:29;;;;;;;5.53;5.03;;;;;;;-0.22;100.00;91455.97;2101707;28;20696;-89
2021/12/08 05:01:31;;;;;;;4.32;3.92;;;;;;;-0.09;100.00;91441.22;2100703;28;20384;-89
2021/12/08 05:04:44;;;;;;;5.35;4.75;;;;;;;0.05;100.00;91439.59;2102809;28;20028;-88
2021/12/08 05:08:12;;;;;;;4.90;4.43;;;;;;;-0.04;100.00;91446.03;2106302;28;20028;-89
2021/12/08 05:09:25;;;;;;;5.63;5.13;;;;;;;-0.12;100.00;91434.09;2106395;28;20063;-89
2021/12/08 05:10:35;;;;;;;6.32;4.82;;;;;;;-0.04;100.00;91425.03;2091198;28;20052;-89
2021/12/08 05:11:38;;;;;;;;;;;;;;;-0.12;100.00;91420.22;2101096;28;20028;-89
2021/12/08 05:12:40;;;;;;;5.53;4.50;;;;;;;-0.13;100.00;91406.38;2102634;28;20282;-90
2021/12/08 05:13:48;;;;;;;5.35;4.85;;;;;;;-0.08;100.00;91400.69;2089987;28;20025;-89
2021/12/08 05:14:59;;;;;;;5.70;5.15;;;;;;;0.11;100.00;91403.88;2083397;28;20482;-87
2021/12/08 05:16:03;;;;;;;5.68;5.18;;;;;;;-0.05;100.00;91415.63;2092431;28;20497;-88
2021/12/08 05:17:11;;;;;;;5.38;4.88;;;;;;;-0.17;100.00;91416.16;2098127;28;20512;-87
2021/12/08 05:18:21;;;;;;;5.10;4.63;;;;;;;-0.18;100.00;91425.13;2090592;28;20036;-88
2021/12/08 05:19:25;;;;;;;4.85;4.45;;;;;;;-0.20;100.00;91427.44;2092185;28;20405;-88
2021/12/08 05:20:47;;;;;;;5.07;4.57;;;;;;;-0.21;100.00;91428.56;2097974;28;20021;-89
2021/12/08 05:21:56;;;;;;;5.53;4.88;;;;;;;-0.26;100.00;91442.13;2103810;28;20035;-89
2021/12/08 05:23:06;;;;;;;6.50;5.30;;;;;;;-0.19;100.00;91436.78;2105025;28;20054;-90
2021/12/08 05:24:22;;;;;;;5.47;4.85;;;;;;;-0.23;100.00;91441.31;2090975;28;20505;-87
2021/12/08 05:25:27;;;;;;;6.30;5.32;;;;;;;-0.27;100.00;91443.22;2085939;28;20025;-89
2021/12/08 05:26:43;;;;;;;5.05;4.65;;;;;;;-0.27;100.00;91441.34;2090824;28;20024;-88
2021/12/08 05:27:50;;;;;;;5.20;4.72;;;;;;;-0.23;100.00;91445.81;2108169;28;20031;-88
2021/12/08 05:28:59;;;;;;;6.15;5.43;;;;;;;-0.25;100.00;91446.22;2103697;28;20024;-89
2021/12/08 05:30:11;;;;;;;5.00;4.55;;;;;;;-0.07;100.00;91446.81;2098681;28;20469;-89
2021/12/08 05:31:24;;;;;;;5.10;4.60;;;;;;;-0.12;100.00;91452.47;2098009;28;20075;-89
2021/12/08 05:32:26;;;;;;;5.72;4.72;;;;;;;-0.01;100.00;91461.00;2097852;28;20039;-90
2021/12/08 05:33:29;;;;;;;5.00;4.60;;;;;;;-0.10;100.00;91449.47;2097919;28;20039;-89
2021/12/08 05:34:31;;;;;;;4.60;4.20;;;;;;;-0.19;100.00;91455.16;2098472;28;20052;-88
2021/12/08 05:35:35;;;;;;;5.57;5.07;;;;;;;-0.11;100.00;91438.22;2097386;28;20062;-89
2021/12/08 05:36:37;;;;;;;6.45;4.70;;;;;;;-0.09;100.00;91441.22;2092869;28;20102;-87
2021/12/08 05:37:42;;;;;;;5.20;4.80;;;;;;;-0.15;100.00;91440.13;2095149;28;20036;-91
2021/12/08 05:38:45;;;;;;;8.20;7.40;;;;;;;-0.21;100.00;91428.56;2098837;28;20462;-91
2021/12/08 05:39:51;;;;;;;10.10;9.00;;;;;;;-0.24;100.00;91418.09;2104109;28;20123;-89
2021/12/08 05:41:01;;;;;;;8.13;7.32;;;;;;;-0.20;100.00;91410.94;2094836;28;20118;-88